sensor_id;sensor_type;location;lat;lon;timestamp;P1;durP1;ratioP1;P2;durP2;ratioP2
5878;SDS011;2965;42.640;23.370;2023-05-07T04:03:29;14.13;;;12.20;;
5878;SDS011;2965;42.640;23.370;2023-05-07T04:05:55;18.33;;;12.63;;
5878;SDS011;2965;42.640;23.370;2023-05-07T04:08:20;15.90;;;12.13;;
5878;SDS011;2965;42.640;23.370;2023-05-07T04:10:45;19.60;;;11.90;;
5878;SDS011;2965;42.640;23.370;2023-05-07T04:13:11;14.83;;;11.57;;
5878;SDS011;2965;42.640;23.370;2023-05-07T04:15:36;13.40;;;12.00;;
5878;SDS011;2965;42.640;23.370;2023-05-07T04:18:02;20.20;;;11.87;;
5878;SDS011;2965;42.640;23.370;2023-05-07T04:20:27;28.53;;;11.87;;
5878;SDS011;2965;42.640;23.370;2023-05-07T04:22:52;18.07;;;12.63;;
5878;SDS011;2965;42.640;23.370;2023-05-07T04:25:18;14.40;;;10.93;;
5878;SDS011;2965;42.640;23.370;2023-05-07T04:27:43;18.10;;;12.47;;
5878;SDS011;2965;42.640;23.370;2023-05-07T04:30:09;15.43;;;13.00;;
5878;SDS011;2965;42.640;23.370;2023-05-07T04:32:35;22.30;;;13.77;;
5878;SDS011;2965;42.640;23.370;2023-05-07T04:35:01;20.13;;;12.50;;
5878;SDS011;2965;42.640;23.370;2023-05-07T04:37:26;13.90;;;12.20;;
5878;SDS011;2965;42.640;23.370;2023-05-07T04:39:52;28.53;;;13.50;;
5878;SDS011;2965;42.640;23.370;2023-05-07T04:42:17;20.60;;;14.40;;
5878;SDS011;2965;42.640;23.370;2023-05-07T04:44:44;18.27;;;13.13;;
5878;SDS011;2965;42.640;23.370;2023-05-07T04:47:10;16.90;;;13.50;;
5878;SDS011;2965;42.640;23.370;2023-05-07T04:49:36;19.07;;;13.47;;
5878;SDS011;2965;42.640;23.370;2023-05-07T04:52:03;18.57;;;12.70;;
5878;SDS011;2965;42.640;23.370;2023-05-07T04:54:29;19.73;;;14.40;;
5878;SDS011;2965;42.640;23.370;2023-05-07T04:56:54;15.80;;;13.00;;
5878;SDS011;2965;42.640;23.370;2023-05-07T04:59:20;21.90;;;12.80;;
5878;SDS011;2965;42.640;23.370;2023-05-07T05:01:45;17.47;;;13.73;;
5878;SDS011;2965;42.640;23.370;2023-05-07T05:04:10;18.23;;;13.83;;
5878;SDS011;2965;42.640;23.370;2023-05-07T05:06:36;19.60;;;14.60;;
5878;SDS011;2965;42.640;23.370;2023-05-07T05:09:01;17.53;;;13.73;;
5878;SDS011;2965;42.640;23.370;2023-05-07T05:11:27;33.43;;;13.73;;
5878;SDS011;2965;42.640;23.370;2023-05-07T05:13:52;19.13;;;13.87;;
5878;SDS011;2965;42.640;23.370;2023-05-07T05:16:17;22.47;;;14.43;;
5878;SDS011;2965;42.640;23.370;2023-05-07T05:18:43;22.03;;;15.50;;
5878;SDS011;2965;42.640;23.370;2023-05-07T05:21:08;22.93;;;14.67;;
5878;SDS011;2965;42.640;23.370;2023-05-07T05:23:33;20.43;;;13.83;;
5878;SDS011;2965;42.640;23.370;2023-05-07T05:25:59;18.10;;;13.30;;
5878;SDS011;2965;42.640;23.370;2023-05-07T05:28:24;21.30;;;14.40;;
5878;SDS011;2965;42.640;23.370;2023-05-07T05:30:50;16.60;;;13.47;;
5878;SDS011;2965;42.640;23.370;2023-05-07T05:33:15;20.97;;;14.47;;
5878;SDS011;2965;42.640;23.370;2023-05-07T05:35:41;22.77;;;14.97;;
5878;SDS011;2965;42.640;23.370;2023-05-07T05:38:07;19.17;;;13.30;;
5878;SDS011;2965;42.640;23.370;2023-05-07T05:40:32;20.27;;;12.43;;
5878;SDS011;2965;42.640;23.370;2023-05-07T05:42:58;21.50;;;14.57;;
5878;SDS011;2965;42.640;23.370;2023-05-07T05:45:24;25.17;;;15.77;;
5878;SDS011;2965;42.640;23.370;2023-05-07T05:47:49;20.10;;;14.40;;
5878;SDS011;2965;42.640;23.370;2023-05-07T05:50:14;21.37;;;14.77;;
5878;SDS011;2965;42.640;23.370;2023-05-07T05:52:40;26.30;;;15.20;;
5878;SDS011;2965;42.640;23.370;2023-05-07T05:55:06;29.37;;;16.00;;
5878;SDS011;2965;42.640;23.370;2023-05-07T05:57:31;21.50;;;15.63;;
5878;SDS011;2965;42.640;23.370;2023-05-07T05:59:57;21.57;;;14.43;;
5878;SDS011;2965;42.640;23.370;2023-05-07T06:02:23;17.90;;;13.37;;
5878;SDS011;2965;42.640;23.370;2023-05-07T06:04:48;25.37;;;15.60;;
5878;SDS011;2965;42.640;23.370;2023-05-07T06:07:14;23.03;;;14.80;;
5878;SDS011;2965;42.640;23.370;2023-05-07T06:09:39;20.03;;;14.70;;
5878;SDS011;2965;42.640;23.370;2023-05-07T06:12:04;20.73;;;15.03;;
5878;SDS011;2965;42.640;23.370;2023-05-07T06:14:30;18.87;;;13.50;;
5878;SDS011;2965;42.640;23.370;2023-05-07T06:16:56;21.50;;;15.03;;
5878;SDS011;2965;42.640;23.370;2023-05-07T06:19:21;19.63;;;14.73;;
5878;SDS011;2965;42.640;23.370;2023-05-07T06:21:48;21.27;;;15.37;;
5878;SDS011;2965;42.640;23.370;2023-05-07T06:24:16;12.50;;;11.03;;
5878;SDS011;2965;42.640;23.370;2023-05-07T06:26:41;25.27;;;14.53;;
5878;SDS011;2965;42.640;23.370;2023-05-07T06:29:07;35.07;;;13.23;;
5878;SDS011;2965;42.640;23.370;2023-05-07T06:31:32;25.33;;;13.10;;
5878;SDS011;2965;42.640;23.370;2023-05-07T06:33:58;14.70;;;12.43;;
5878;SDS011;2965;42.640;23.370;2023-05-07T06:36:24;14.70;;;12.87;;
5878;SDS011;2965;42.640;23.370;2023-05-07T06:38:49;14.77;;;11.90;;
5878;SDS011;2965;42.640;23.370;2023-05-07T06:41:14;19.10;;;13.33;;
5878;SDS011;2965;42.640;23.370;2023-05-07T06:43:40;15.23;;;12.20;;
5878;SDS011;2965;42.640;23.370;2023-05-07T06:46:05;17.60;;;11.63;;
5878;SDS011;2965;42.640;23.370;2023-05-07T06:48:31;16.90;;;12.30;;
5878;SDS011;2965;42.640;23.370;2023-05-07T06:50:57;16.53;;;11.50;;
5878;SDS011;2965;42.640;23.370;2023-05-07T06:53:23;19.10;;;12.03;;
5878;SDS011;2965;42.640;23.370;2023-05-07T06:55:48;12.47;;;11.17;;
5878;SDS011;2965;42.640;23.370;2023-05-07T06:58:14;12.67;;;11.30;;
5878;SDS011;2965;42.640;23.370;2023-05-07T07:00:39;13.83;;;12.33;;
5878;SDS011;2965;42.640;23.370;2023-05-07T07:20:19;12.60;;;10.00;;
5878;SDS011;2965;42.640;23.370;2023-05-07T07:22:45;16.60;;;11.70;;
5878;SDS011;2965;42.640;23.370;2023-05-07T07:25:10;11.30;;;10.07;;
5878;SDS011;2965;42.640;23.370;2023-05-07T07:27:36;16.00;;;11.00;;
5878;SDS011;2965;42.640;23.370;2023-05-07T07:30:02;20.23;;;12.23;;
5878;SDS011;2965;42.640;23.370;2023-05-07T07:32:28;14.13;;;11.03;;
5878;SDS011;2965;42.640;23.370;2023-05-07T07:34:53;11.87;;;10.60;;
5878;SDS011;2965;42.640;23.370;2023-05-07T07:37:19;17.40;;;11.17;;
5878;SDS011;2965;42.640;23.370;2023-05-07T07:39:44;10.73;;;9.63;;
5878;SDS011;2965;42.640;23.370;2023-05-07T07:42:10;17.87;;;9.87;;
5878;SDS011;2965;42.640;23.370;2023-05-07T07:44:35;29.27;;;11.00;;
5878;SDS011;2965;42.640;23.370;2023-05-07T07:47:00;14.97;;;10.53;;
5878;SDS011;2965;42.640;23.370;2023-05-07T07:49:26;12.40;;;11.10;;
5878;SDS011;2965;42.640;23.370;2023-05-07T07:51:52;13.83;;;10.80;;
5878;SDS011;2965;42.640;23.370;2023-05-07T07:54:17;15.50;;;10.37;;
5878;SDS011;2965;42.640;23.370;2023-05-07T07:56:42;11.90;;;10.63;;
5878;SDS011;2965;42.640;23.370;2023-05-07T07:59:08;12.60;;;9.80;;
5878;SDS011;2965;42.640;23.370;2023-05-07T08:01:33;10.23;;;9.20;;
5878;SDS011;2965;42.640;23.370;2023-05-07T08:03:58;13.93;;;10.00;;
5878;SDS011;2965;42.640;23.370;2023-05-07T08:06:24;14.90;;;10.63;;
5878;SDS011;2965;42.640;23.370;2023-05-07T08:08:51;17.37;;;10.70;;
5878;SDS011;2965;42.640;23.370;2023-05-07T08:11:16;12.90;;;10.53;;
5878;SDS011;2965;42.640;23.370;2023-05-07T08:13:42;15.20;;;10.97;;
5878;SDS011;2965;42.640;23.370;2023-05-07T08:16:07;17.73;;;10.60;;
5878;SDS011;2965;42.640;23.370;2023-05-07T08:18:33;14.83;;;11.03;;
5878;SDS011;2965;42.640;23.370;2023-05-07T08:20:58;21.13;;;10.70;;
5878;SDS011;2965;42.640;23.370;2023-05-07T08:23:23;12.03;;;10.40;;
5878;SDS011;2965;42.640;23.370;2023-05-07T08:25:49;11.97;;;10.40;;
5878;SDS011;2965;42.640;23.370;2023-05-07T08:28:14;15.53;;;12.70;;
5878;SDS011;2965;42.640;23.370;2023-05-07T08:30:40;14.63;;;13.07;;
5878;SDS011;2965;42.640;23.370;2023-05-07T08:33:05;18.50;;;11.60;;
5878;SDS011;2965;42.640;23.370;2023-05-07T08:35:31;15.73;;;11.20;;
5878;SDS011;2965;42.640;23.370;2023-05-07T08:37:56;18.67;;;12.73;;
5878;SDS011;2965;42.640;23.370;2023-05-07T08:40:23;13.20;;;11.40;;
5878;SDS011;2965;42.640;23.370;2023-05-07T08:42:50;23.23;;;12.23;;
5878;SDS011;2965;42.640;23.370;2023-05-07T08:45:18;13.73;;;10.93;;
5878;SDS011;2965;42.640;23.370;2023-05-07T08:47:46;12.53;;;10.53;;
5878;SDS011;2965;42.640;23.370;2023-05-07T08:50:16;10.67;;;9.40;;
5878;SDS011;2965;42.640;23.370;2023-05-07T08:52:42;15.87;;;12.10;;
5878;SDS011;2965;42.640;23.370;2023-05-07T08:55:08;10.07;;;7.53;;
5878;SDS011;2965;42.640;23.370;2023-05-07T08:57:33;11.13;;;7.80;;
5878;SDS011;2965;42.640;23.370;2023-05-07T08:59:59;7.37;;;6.73;;
5878;SDS011;2965;42.640;23.370;2023-05-07T09:02:25;7.43;;;6.60;;
5878;SDS011;2965;42.640;23.370;2023-05-07T09:04:50;15.57;;;8.90;;
5878;SDS011;2965;42.640;23.370;2023-05-07T09:07:16;8.47;;;7.60;;
5878;SDS011;2965;42.640;23.370;2023-05-07T09:09:41;14.63;;;7.93;;
5878;SDS011;2965;42.640;23.370;2023-05-07T09:12:09;9.20;;;8.40;;
5878;SDS011;2965;42.640;23.370;2023-05-07T09:14:34;11.27;;;7.53;;
5878;SDS011;2965;42.640;23.370;2023-05-07T09:17:00;8.70;;;8.00;;
5878;SDS011;2965;42.640;23.370;2023-05-07T12:39:28;11.27;;;7.20;;
5878;SDS011;2965;42.640;23.370;2023-05-07T12:41:54;6.73;;;6.33;;
5878;SDS011;2965;42.640;23.370;2023-05-07T12:44:24;6.07;;;5.83;;
5878;SDS011;2965;42.640;23.370;2023-05-07T12:46:53;6.97;;;6.40;;
5878;SDS011;2965;42.640;23.370;2023-05-07T12:49:19;6.90;;;6.60;;
5878;SDS011;2965;42.640;23.370;2023-05-07T12:51:46;7.23;;;6.30;;
5878;SDS011;2965;42.640;23.370;2023-05-07T12:54:13;6.83;;;6.23;;
5878;SDS011;2965;42.640;23.370;2023-05-07T12:56:39;6.43;;;6.03;;
5878;SDS011;2965;42.640;23.370;2023-05-07T12:59:05;6.63;;;6.03;;
5878;SDS011;2965;42.640;23.370;2023-05-07T13:01:30;8.47;;;6.80;;
5878;SDS011;2965;42.640;23.370;2023-05-07T13:04:02;6.27;;;5.97;;
5878;SDS011;2965;42.640;23.370;2023-05-07T13:06:29;6.30;;;6.00;;
5878;SDS011;2965;42.640;23.370;2023-05-07T13:08:55;6.57;;;6.17;;
5878;SDS011;2965;42.640;23.370;2023-05-07T13:11:21;6.67;;;6.17;;
5878;SDS011;2965;42.640;23.370;2023-05-07T13:13:47;6.63;;;6.33;;
5878;SDS011;2965;42.640;23.370;2023-05-07T13:16:13;6.97;;;6.37;;
5878;SDS011;2965;42.640;23.370;2023-05-07T13:18:39;6.57;;;6.03;;
5878;SDS011;2965;42.640;23.370;2023-05-07T13:21:05;5.80;;;5.60;;
5878;SDS011;2965;42.640;23.370;2023-05-07T13:23:31;5.87;;;5.47;;
5878;SDS011;2965;42.640;23.370;2023-05-07T13:25:56;5.97;;;5.40;;
5878;SDS011;2965;42.640;23.370;2023-05-07T13:28:22;5.30;;;5.00;;
5878;SDS011;2965;42.640;23.370;2023-05-07T13:30:49;5.10;;;4.90;;
5878;SDS011;2965;42.640;23.370;2023-05-07T13:33:16;4.90;;;4.53;;
5878;SDS011;2965;42.640;23.370;2023-05-07T13:35:43;4.43;;;4.23;;
5878;SDS011;2965;42.640;23.370;2023-05-07T13:38:08;4.47;;;4.37;;
5878;SDS011;2965;42.640;23.370;2023-05-07T13:40:33;4.87;;;4.47;;
5878;SDS011;2965;42.640;23.370;2023-05-07T13:42:59;4.63;;;4.53;;
5878;SDS011;2965;42.640;23.370;2023-05-07T13:45:27;4.33;;;4.13;;
5878;SDS011;2965;42.640;23.370;2023-05-07T13:47:54;4.37;;;4.17;;
5878;SDS011;2965;42.640;23.370;2023-05-07T13:50:20;5.07;;;4.87;;
5878;SDS011;2965;42.640;23.370;2023-05-07T13:52:46;3.80;;;3.70;;
5878;SDS011;2965;42.640;23.370;2023-05-07T13:55:18;4.97;;;4.63;;
5878;SDS011;2965;42.640;23.370;2023-05-07T13:57:44;5.10;;;4.20;;
5878;SDS011;2965;42.640;23.370;2023-05-07T14:00:11;4.57;;;4.17;;
5878;SDS011;2965;42.640;23.370;2023-05-07T14:02:37;4.57;;;4.27;;
5878;SDS011;2965;42.640;23.370;2023-05-07T14:05:02;5.80;;;5.60;;
5878;SDS011;2965;42.640;23.370;2023-05-07T14:07:28;4.50;;;4.30;;
5878;SDS011;2965;42.640;23.370;2023-05-07T14:09:54;4.00;;;3.87;;
5878;SDS011;2965;42.640;23.370;2023-05-07T14:12:19;7.03;;;5.30;;
5878;SDS011;2965;42.640;23.370;2023-05-07T14:14:45;4.77;;;4.57;;
5878;SDS011;2965;42.640;23.370;2023-05-07T14:17:11;4.90;;;4.57;;
5878;SDS011;2965;42.640;23.370;2023-05-07T14:19:37;4.10;;;4.00;;
5878;SDS011;2965;42.640;23.370;2023-05-07T14:22:02;4.93;;;4.73;;
5878;SDS011;2965;42.640;23.370;2023-05-07T14:24:28;5.00;;;4.80;;
5878;SDS011;2965;42.640;23.370;2023-05-07T14:26:53;4.30;;;4.20;;
5878;SDS011;2965;42.640;23.370;2023-05-07T14:29:18;5.07;;;4.77;;
5878;SDS011;2965;42.640;23.370;2023-05-07T14:31:44;3.77;;;3.67;;
5878;SDS011;2965;42.640;23.370;2023-05-07T14:34:10;5.50;;;4.97;;
5878;SDS011;2965;42.640;23.370;2023-05-07T14:36:36;4.90;;;4.70;;
5878;SDS011;2965;42.640;23.370;2023-05-07T14:39:03;5.20;;;4.70;;
5878;SDS011;2965;42.640;23.370;2023-05-07T14:41:28;3.97;;;3.87;;
5878;SDS011;2965;42.640;23.370;2023-05-07T14:43:54;4.63;;;4.10;;
5878;SDS011;2965;42.640;23.370;2023-05-07T14:46:19;4.93;;;4.63;;
5878;SDS011;2965;42.640;23.370;2023-05-07T14:48:45;4.50;;;4.20;;
5878;SDS011;2965;42.640;23.370;2023-05-07T14:51:11;8.43;;;4.80;;
5878;SDS011;2965;42.640;23.370;2023-05-07T14:53:37;5.57;;;4.17;;
5878;SDS011;2965;42.640;23.370;2023-05-07T14:56:02;4.97;;;4.43;;
5878;SDS011;2965;42.640;23.370;2023-05-07T14:58:28;6.30;;;4.60;;
5878;SDS011;2965;42.640;23.370;2023-05-07T15:00:54;4.07;;;3.87;;
5878;SDS011;2965;42.640;23.370;2023-05-07T15:03:19;4.87;;;3.73;;
5878;SDS011;2965;42.640;23.370;2023-05-07T15:05:45;5.37;;;4.87;;
5878;SDS011;2965;42.640;23.370;2023-05-07T15:08:10;9.20;;;4.40;;
5878;SDS011;2965;42.640;23.370;2023-05-07T15:10:36;4.57;;;4.47;;
5878;SDS011;2965;42.640;23.370;2023-05-07T15:13:09;8.90;;;8.23;;
5878;SDS011;2965;42.640;23.370;2023-05-07T15:15:36;5.67;;;5.20;;
5878;SDS011;2965;42.640;23.370;2023-05-07T15:18:02;6.67;;;4.80;;
5878;SDS011;2965;42.640;23.370;2023-05-07T15:20:27;4.30;;;4.00;;
5878;SDS011;2965;42.640;23.370;2023-05-07T15:22:53;5.10;;;4.73;;
5878;SDS011;2965;42.640;23.370;2023-05-07T15:25:19;4.37;;;4.00;;
5878;SDS011;2965;42.640;23.370;2023-05-07T15:27:45;5.77;;;5.40;;
5878;SDS011;2965;42.640;23.370;2023-05-07T15:30:11;6.07;;;5.63;;
5878;SDS011;2965;42.640;23.370;2023-05-07T15:32:37;5.37;;;4.83;;
5878;SDS011;2965;42.640;23.370;2023-05-07T15:35:03;4.97;;;4.70;;
5878;SDS011;2965;42.640;23.370;2023-05-07T15:37:33;4.40;;;4.20;;
5878;SDS011;2965;42.640;23.370;2023-05-07T15:39:59;8.30;;;7.53;;
5878;SDS011;2965;42.640;23.370;2023-05-07T15:42:27;5.60;;;5.13;;
5878;SDS011;2965;42.640;23.370;2023-05-07T15:44:52;4.33;;;4.13;;
5878;SDS011;2965;42.640;23.370;2023-05-07T15:47:18;14.97;;;5.87;;
5878;SDS011;2965;42.640;23.370;2023-05-07T15:49:43;4.60;;;3.70;;
5878;SDS011;2965;42.640;23.370;2023-05-07T15:52:08;4.67;;;4.37;;
5878;SDS011;2965;42.640;23.370;2023-05-07T15:54:39;4.67;;;4.27;;
5878;SDS011;2965;42.640;23.370;2023-05-07T15:57:05;4.03;;;3.93;;
5878;SDS011;2965;42.640;23.370;2023-05-07T15:59:31;5.13;;;4.83;;
5878;SDS011;2965;42.640;23.370;2023-05-07T16:01:57;4.00;;;3.80;;
5878;SDS011;2965;42.640;23.370;2023-05-07T16:04:22;4.00;;;3.90;;
5878;SDS011;2965;42.640;23.370;2023-05-07T16:06:48;4.07;;;3.93;;
5878;SDS011;2965;42.640;23.370;2023-05-07T16:09:13;4.20;;;3.90;;
5878;SDS011;2965;42.640;23.370;2023-05-07T16:11:39;3.93;;;3.73;;
5878;SDS011;2965;42.640;23.370;2023-05-07T16:14:04;4.20;;;3.90;;
5878;SDS011;2965;42.640;23.370;2023-05-07T16:16:33;4.30;;;4.03;;
5878;SDS011;2965;42.640;23.370;2023-05-07T17:22:14;8.10;;;5.10;;
5878;SDS011;2965;42.640;23.370;2023-05-07T17:24:39;9.90;;;4.53;;
5878;SDS011;2965;42.640;23.370;2023-05-07T17:27:05;5.13;;;4.83;;
5878;SDS011;2965;42.640;23.370;2023-05-07T17:29:30;6.33;;;5.30;;
5878;SDS011;2965;42.640;23.370;2023-05-07T17:31:55;5.97;;;5.50;;
5878;SDS011;2965;42.640;23.370;2023-05-07T17:34:21;9.50;;;5.50;;
5878;SDS011;2965;42.640;23.370;2023-05-07T17:36:47;10.90;;;5.30;;
5878;SDS011;2965;42.640;23.370;2023-05-07T17:39:12;9.93;;;5.20;;
5878;SDS011;2965;42.640;23.370;2023-05-07T17:41:37;6.20;;;5.77;;
5878;SDS011;2965;42.640;23.370;2023-05-07T17:44:03;5.80;;;5.60;;
5878;SDS011;2965;42.640;23.370;2023-05-07T17:46:28;7.50;;;6.20;;
5878;SDS011;2965;42.640;23.370;2023-05-07T17:48:54;6.27;;;5.87;;
5878;SDS011;2965;42.640;23.370;2023-05-07T17:51:21;9.57;;;6.37;;
5878;SDS011;2965;42.640;23.370;2023-05-07T17:53:47;7.13;;;6.73;;
5878;SDS011;2965;42.640;23.370;2023-05-07T17:56:12;10.90;;;6.50;;
5878;SDS011;2965;42.640;23.370;2023-05-07T17:58:37;9.17;;;7.03;;
5878;SDS011;2965;42.640;23.370;2023-05-07T18:01:03;6.00;;;5.70;;
5878;SDS011;2965;42.640;23.370;2023-05-07T18:03:28;6.70;;;6.40;;
5878;SDS011;2965;42.640;23.370;2023-05-07T18:05:55;7.03;;;6.03;;
5878;SDS011;2965;42.640;23.370;2023-05-07T18:08:20;8.17;;;6.83;;
5878;SDS011;2965;42.640;23.370;2023-05-07T18:10:46;7.57;;;6.80;;
5878;SDS011;2965;42.640;23.370;2023-05-07T18:13:11;6.70;;;6.30;;
5878;SDS011;2965;42.640;23.370;2023-05-07T18:15:37;11.17;;;6.50;;
5878;SDS011;2965;42.640;23.370;2023-05-07T18:18:02;7.57;;;6.97;;
5878;SDS011;2965;42.640;23.370;2023-05-07T18:20:28;8.20;;;6.73;;
5878;SDS011;2965;42.640;23.370;2023-05-07T18:22:53;9.10;;;7.60;;
5878;SDS011;2965;42.640;23.370;2023-05-07T18:25:18;9.17;;;8.37;;
5878;SDS011;2965;42.640;23.370;2023-05-07T18:27:44;7.27;;;6.70;;
5878;SDS011;2965;42.640;23.370;2023-05-07T18:30:09;6.60;;;6.20;;
5878;SDS011;2965;42.640;23.370;2023-05-07T18:32:35;7.10;;;6.70;;
5878;SDS011;2965;42.640;23.370;2023-05-07T18:35:01;8.20;;;7.37;;
5878;SDS011;2965;42.640;23.370;2023-05-07T18:37:26;10.47;;;7.73;;
5878;SDS011;2965;42.640;23.370;2023-05-07T18:39:51;6.90;;;6.33;;
5878;SDS011;2965;42.640;23.370;2023-05-07T18:42:17;8.60;;;6.90;;
5878;SDS011;2965;42.640;23.370;2023-05-07T18:44:42;6.70;;;6.20;;
5878;SDS011;2965;42.640;23.370;2023-05-07T18:47:07;7.60;;;7.00;;
5878;SDS011;2965;42.640;23.370;2023-05-07T18:49:33;6.87;;;6.40;;
5878;SDS011;2965;42.640;23.370;2023-05-07T18:51:59;9.43;;;6.90;;
5878;SDS011;2965;42.640;23.370;2023-05-07T18:54:24;7.80;;;7.20;;
5878;SDS011;2965;42.640;23.370;2023-05-07T18:56:50;6.77;;;6.27;;
5878;SDS011;2965;42.640;23.370;2023-05-07T18:59:15;6.07;;;5.67;;
5878;SDS011;2965;42.640;23.370;2023-05-07T19:01:41;6.47;;;6.07;;
5878;SDS011;2965;42.640;23.370;2023-05-07T19:04:07;6.43;;;6.03;;
5878;SDS011;2965;42.640;23.370;2023-05-07T19:06:32;8.67;;;7.97;;
5878;SDS011;2965;42.640;23.370;2023-05-07T19:08:57;10.40;;;5.97;;
5878;SDS011;2965;42.640;23.370;2023-05-07T19:11:23;7.53;;;6.90;;
5878;SDS011;2965;42.640;23.370;2023-05-07T19:13:48;7.23;;;6.60;;
5878;SDS011;2965;42.640;23.370;2023-05-07T19:16:14;6.50;;;6.20;;
5878;SDS011;2965;42.640;23.370;2023-05-07T19:18:39;6.50;;;6.20;;
5878;SDS011;2965;42.640;23.370;2023-05-07T19:21:05;6.93;;;6.30;;
5878;SDS011;2965;42.640;23.370;2023-05-07T19:23:31;9.33;;;6.50;;
5878;SDS011;2965;42.640;23.370;2023-05-07T19:25:57;7.70;;;6.37;;
5878;SDS011;2965;42.640;23.370;2023-05-07T19:28:23;8.43;;;7.57;;
5878;SDS011;2965;42.640;23.370;2023-05-07T19:30:50;11.30;;;6.47;;
5878;SDS011;2965;42.640;23.370;2023-05-07T19:33:16;8.43;;;7.33;;
